Time;durP1;ratioP1;P1;durP2;ratioP2;P2;SDS_P1;SDS_P2;PMS_P1;PMS_P2;Temp;Humidity;BMP_temperature;BMP_pressure;BME280_temperature;BME280_humidity;BME280_pressure;Samples;Min_cycle;Max_cycle;Signal;HPM_P1;HPM_P2
2022/04/04 00:03:36;;;;;;;4.70;4.33;;;;;;;;;;10427137;28;20512;-76
2022/04/04 00:08:37;;;;;;;4.20;3.93;;;;;;;;;;10420135;28;20199;-76
2022/04/04 00:13:38;;;;;;;5.13;4.70;;;;;;;;;;10423755;28;20191;-76
2022/04/04 00:18:39;;;;;;;4.30;4.10;;;;;;;;;;10426523;28;20645;-76
2022/04/04 00:23:40;;;;;;;6.30;4.90;;;;;;;;;;10427738;28;20230;-76
2022/04/04 00:28:41;;;;;;;4.70;4.40;;;;;;;;;;10424518;28;20234;-75
2022/04/04 00:33:43;;;;;;;5.03;4.70;;;;;;;;;;10426447;28;20315;-75
2022/04/04 00:38:44;;;;;;;5.17;4.67;;;;;;;;;;10406688;28;20972;-75
2022/04/04 00:43:46;;;;;;;4.60;4.40;;;;;;;;;;10422832;28;20198;-76
2022/04/04 00:48:47;;;;;;;5.00;4.60;;;;;;;;;;10427613;28;20214;-76
2022/04/04 00:53:49;;;;;;;5.17;4.77;;;;;;;;;;10422971;28;20641;-76
2022/04/04 00:58:50;;;;;;;5.37;4.97;;;;;;;;;;10424762;28;20239;-76
2022/04/04 01:03:51;;;;;;;5.63;5.27;;;;;;;;;;10406680;28;20216;-75
2022/04/04 01:08:52;;;;;;;5.67;5.17;;;;;;;;;;10424878;28;20237;-75
2022/04/04 01:13:53;;;;;;;6.47;5.93;;;;;;;;;;10415828;28;20213;-76
2022/04/04 01:18:54;;;;;;;5.13;4.73;;;;;;;;;;10422357;28;20207;-75
2022/04/04 01:23:59;;;;;;;7.60;5.93;;;;;;;;;;10422688;28;20294;-76
2022/04/04 01:29:00;;;;;;;5.27;4.97;;;;;;;;;;10420564;28;20207;-76
2022/04/04 01:34:01;;;;;;;5.93;5.43;;;;;;;;;;10419922;28;20714;-75
2022/04/04 01:39:02;;;;;;;5.67;5.23;;;;;;;;;;10419972;28;20223;-75
2022/04/04 01:44:03;;;;;;;6.07;5.67;;;;;;;;;;10416031;28;20734;-75
2022/04/04 01:49:05;;;;;;;5.33;4.87;;;;;;;;;;10418928;28;20752;-75
2022/04/04 01:54:06;;;;;;;5.53;5.13;;;;;;;;;;10420342;28;20313;-75
2022/04/04 01:59:07;;;;;;;5.30;4.90;;;;;;;;;;10417610;28;20282;-76
2022/04/04 02:04:10;;;;;;;5.50;5.20;;;;;;;;;;10419819;28;20206;-76
2022/04/04 02:09:11;;;;;;;5.13;4.83;;;;;;;;;;10417411;28;20215;-76
2022/04/04 02:14:13;;;;;;;5.50;4.83;;;;;;;;;;10418632;28;20253;-75
2022/04/04 02:19:16;;;;;;;5.70;5.27;;;;;;;;;;10417496;28;20214;-76
2022/04/04 02:24:17;;;;;;;5.57;5.17;;;;;;;;;;10424552;28;20215;-76
2022/04/04 02:29:18;;;;;;;5.70;5.40;;;;;;;;;;10422167;28;21167;-75
2022/04/04 02:34:19;;;;;;;5.60;5.20;;;;;;;;;;10419329;28;20349;-75
2022/04/04 02:39:20;;;;;;;6.93;5.20;;;;;;;;;;10417220;28;20207;-74
2022/04/04 02:44:22;;;;;;;6.40;5.57;;;;;;;;;;10418572;28;20204;-75
2022/04/04 02:49:24;;;;;;;6.47;5.97;;;;;;;;;;10415890;28;20683;-75
2022/04/04 02:54:25;;;;;;;6.30;5.67;;;;;;;;;;10411313;28;20216;-75
2022/04/04 02:59:27;;;;;;;6.43;5.93;;;;;;;;;;10418903;28;20860;-75
2022/04/04 03:04:28;;;;;;;6.70;6.03;;;;;;;;;;10421181;28;20341;-75
2022/04/04 03:09:29;;;;;;;6.60;6.20;;;;;;;;;;10423723;28;20219;-75
2022/04/04 03:14:31;;;;;;;6.47;6.00;;;;;;;;;;10417464;28;20195;-75
2022/04/04 03:19:32;;;;;;;6.17;5.77;;;;;;;;;;10418716;28;20222;-76
2022/04/04 03:24:34;;;;;;;6.87;6.37;;;;;;;;;;10424680;28;20199;-76
2022/04/04 03:29:35;;;;;;;7.40;6.80;;;;;;;;;;10408873;28;20215;-76
2022/04/04 03:34:36;;;;;;;7.57;6.87;;;;;;;;;;10412948;28;20223;-76
2022/04/04 03:39:37;;;;;;;9.63;7.63;;;;;;;;;;10431491;28;20227;-75
2022/04/04 03:44:38;;;;;;;9.40;8.23;;;;;;;;;;10427321;28;20289;-75
2022/04/04 03:49:39;;;;;;;8.53;7.77;;;;;;;;;;10430070;28;20706;-75
2022/04/04 03:54:40;;;;;;;9.17;8.30;;;;;;;;;;10429686;28;20262;-75
2022/04/04 03:59:41;;;;;;;9.23;8.30;;;;;;;;;;10409265;28;20204;-76
2022/04/04 04:04:44;;;;;;;8.40;7.67;;;;;;;;;;10425665;28;20215;-75
2022/04/04 04:09:45;;;;;;;9.73;8.73;;;;;;;;;;10427624;28;20219;-75
2022/04/04 04:14:47;;;;;;;10.00;8.87;;;;;;;;;;10425643;28;20206;-76
2022/04/04 04:25:09;;;;;;;10.70;9.30;;;;;;;;;;10420913;28;20202;-76
2022/04/04 04:30:10;;;;;;;13.33;9.73;;;;;;;;;;10425798;28;20233;-75
2022/04/04 04:35:12;;;;;;;11.03;9.83;;;;;;;;;;10421242;28;20219;-75
2022/04/04 04:40:14;;;;;;;12.23;9.40;;;;;;;;;;10428145;28;20242;-75
2022/04/04 04:45:15;;;;;;;13.37;10.60;;;;;;;;;;10423308;28;20686;-76
2022/04/04 04:50:18;;;;;;;11.93;10.20;;;;;;;;;;10423226;28;20207;-75
2022/04/04 04:55:19;;;;;;;11.77;10.43;;;;;;;;;;10406199;28;20816;-76
2022/04/04 05:00:23;;;;;;;14.47;10.67;;;;;;;;;;10422016;28;20207;-75
2022/04/04 05:05:24;;;;;;;13.90;10.60;;;;;;;;;;10424817;28;20201;-76
2022/04/04 05:10:26;;;;;;;11.27;9.77;;;;;;;;;;10423844;28;20218;-75
2022/04/04 05:15:27;;;;;;;13.67;11.67;;;;;;;;;;10424439;28;20213;-75
2022/04/04 05:20:29;;;;;;;12.27;10.35;;;;;;;;;;10425153;28;20963;-76
2022/04/04 05:25:30;;;;;;;14.77;11.90;;;;;;;;;;10418774;28;20203;-75
2022/04/04 05:30:31;;;;;;;14.03;11.93;;;;;;;;;;10403361;28;20210;-75
2022/04/04 05:35:32;;;;;;;13.90;11.80;;;;;;;;;;10409761;28;20230;-76
2022/04/04 05:40:34;;;;;;;18.10;13.40;;;;;;;;;;10419717;28;20210;-76
2022/04/04 05:45:35;;;;;;;16.20;13.63;;;;;;;;;;10423339;28;20617;-75
2022/04/04 05:50:36;;;;;;;17.98;14.80;;;;;;;;;;10424835;28;20293;-76
2022/04/04 05:55:37;;;;;;;20.25;14.75;;;;;;;;;;10421529;28;20242;-75
2022/04/04 06:00:38;;;;;;;16.65;13.73;;;;;;;;;;10421835;28;20250;-75
2022/04/04 06:05:39;;;;;;;18.27;15.02;;;;;;;;;;10424410;28;20190;-75
2022/04/04 06:10:40;;;;;;;15.30;13.70;;;;;;;;;;10427722;28;20215;-79
2022/04/04 06:15:42;;;;;;;16.15;11.82;;;;;;;;;;10424430;28;20611;-77
2022/04/04 06:20:43;;;;;;;15.15;12.80;;;;;;;;;;10409407;28;20557;-76
2022/04/04 06:25:49;;;;;;;14.75;11.43;;;;;;;;;;10425037;28;20229;-78
2022/04/04 06:30:51;;;;;;;12.55;11.18;;;;;;;;;;10427871;28;20703;-76
2022/04/04 06:35:52;;;;;;;11.18;9.45;;;;;;;;;;10423762;28;20198;-76
2022/04/04 06:40:53;;;;;;;11.25;10.15;;;;;;;;;;10425787;28;20247;-78
2022/04/04 06:45:54;;;;;;;14.02;10.93;;;;;;;;;;10425086;28;20622;-76
2022/04/04 06:50:55;;;;;;;11.38;10.30;;;;;;;;;;10422696;28;20583;-76
2022/04/04 06:55:56;;;;;;;8.50;7.68;;;;;;;;;;10403288;28;20242;-77
2022/04/04 07:00:58;;;;;;;11.35;10.05;;;;;;;;;;10423222;28;20235;-77
2022/04/04 07:05:59;;;;;;;11.88;9.30;;;;;;;;;;10426134;28;20210;-77
2022/04/04 07:11:01;;;;;;;9.13;7.57;;;;;;;;;;10424934;28;20964;-78
2022/04/04 07:16:03;;;;;;;7.63;7.00;;;;;;;;;;10408362;28;20564;-78
2022/04/04 07:21:04;;;;;;;7.55;5.78;;;;;;;;;;10423267;28;20200;-78
2022/04/04 07:26:06;;;;;;;7.85;5.80;;;;;;;;;;10422628;28;20683;-76
2022/04/04 07:31:09;;;;;;;6.38;5.75;;;;;;;;;;10420900;28;20219;-77
2022/04/04 07:36:11;;;;;;;5.30;5.00;;;;;;;;;;10423206;28;20706;-78
2022/04/04 07:41:12;;;;;;;5.90;5.45;;;;;;;;;;10423365;28;20209;-76
2022/04/04 07:46:13;;;;;;;6.03;5.65;;;;;;;;;;10424408;28;20744;-75
2022/04/04 07:51:14;;;;;;;6.72;6.22;;;;;;;;;;10427012;28;20766;-79
2022/04/04 07:56:15;;;;;;;6.97;6.53;;;;;;;;;;10419398;28;20352;-77
2022/04/04 08:01:16;;;;;;;6.82;6.35;;;;;;;;;;10420546;28;20322;-78
2022/04/04 08:06:18;;;;;;;6.63;5.85;;;;;;;;;;10423942;28;20211;-79
2022/04/04 08:11:19;;;;;;;6.13;5.63;;;;;;;;;;10428352;28;20215;-77
2022/04/04 08:16:22;;;;;;;7.18;5.63;;;;;;;;;;10429754;28;20698;-79
2022/04/04 08:21:23;;;;;;;5.47;4.97;;;;;;;;;;10429917;28;20234;-79
2022/04/04 08:26:24;;;;;;;5.18;4.97;;;;;;;;;;10431988;28;20646;-80
2022/04/04 08:31:25;;;;;;;6.07;5.30;;;;;;;;;;10433353;28;20233;-80
2022/04/04 08:36:26;;;;;;;6.68;5.88;;;;;;;;;;10430734;28;20215;-80
2022/04/04 08:41:30;;;;;;;4.60;4.30;;;;;;;;;;10432035;28;20286;-79
2022/04/04 08:46:33;;;;;;;5.82;5.43;;;;;;;;;;10433123;28;20697;-82
2022/04/04 08:51:35;;;;;;;6.65;6.15;;;;;;;;;;10430199;28;20215;-81
2022/04/04 08:56:36;;;;;;;5.00;4.70;;;;;;;;;;10412763;28;20298;-78
2022/04/04 09:01:37;;;;;;;5.03;4.32;;;;;;;;;;10428410;28;20269;-79
2022/04/04 09:06:48;;;;;;;6.43;6.03;;;;;;;;;;10428700;28;20277;-78
2022/04/04 09:11:53;;;;;;;6.45;5.95;;;;;;;;;;10427268;28;20612;-79
2022/04/04 09:16:55;;;;;;;6.95;6.38;;;;;;;;;;10428237;28;20291;-77
2022/04/04 09:21:56;;;;;;;5.68;5.15;;;;;;;;;;10428061;28;20687;-80
2022/04/04 09:26:57;;;;;;;5.05;4.70;;;;;;;;;;10427129;28;20203;-78
2022/04/04 09:32:05;;;;;;;4.00;3.70;;;;;;;;;;10428089;28;20239;-77
2022/04/04 09:37:14;;;;;;;3.65;3.47;;;;;;;;;;10429715;28;20209;-78
2022/04/04 09:42:16;;;;;;;2.50;2.50;;;;;;;;;;10426154;28;20234;-81
2022/04/04 09:47:17;;;;;;;4.28;4.00;;;;;;;;;;10430893;28;20199;-80
2022/04/04 09:52:18;;;;;;;5.93;3.80;;;;;;;;;;10429137;28;20211;-78
2022/04/04 09:57:20;;;;;;;3.53;3.33;;;;;;;;;;10420308;28;20257;-77
2022/04/04 10:02:21;;;;;;;4.35;3.97;;;;;;;;;;10426846;28;20648;-79
2022/04/04 10:07:22;;;;;;;4.13;2.70;;;;;;;;;;10425560;28;20206;-78
2022/04/04 10:12:23;;;;;;;4.47;3.33;;;;;;;;;;10424429;28;20203;-77
2022/04/04 10:17:25;;;;;;;3.63;3.40;;;;;;;;;;10425965;28;20218;-77
2022/04/04 10:22:27;;;;;;;2.85;2.75;;;;;;;;;;10425224;28;20214;-81
2022/04/04 10:27:28;;;;;;;2.47;2.38;;;;;;;;;;10425883;28;20234;-79
2022/04/04 10:32:30;;;;;;;2.58;2.38;;;;;;;;;;10424920;28;20227;-79
2022/04/04 10:37:40;;;;;;;2.88;2.70;;;;;;;;;;10429487;28;20294;-80
2022/04/04 10:42:43;;;;;;;4.60;3.17;;;;;;;;;;10428018;28;20230;-80
2022/04/04 10:47:44;;;;;;;2.78;2.58;;;;;;;;;;10426123;28;20790;-77
2022/04/04 10:52:46;;;;;;;1.88;1.77;;;;;;;;;;10424032;28;20231;-78
2022/04/04 10:57:47;;;;;;;3.17;2.97;;;;;;;;;;10424944;28;20567;-77
2022/04/04 11:02:52;;;;;;;3.05;2.67;;;;;;;;;;10426511;28;20206;-75
2022/04/04 11:07:58;;;;;;;3.30;3.10;;;;;;;;;;10427798;28;20291;-76
2022/04/04 11:13:00;;;;;;;3.38;3.20;;;;;;;;;;10426344;28;20211;-77
2022/04/04 11:18:03;;;;;;;3.95;3.75;;;;;;;;;;10427163;28;20572;-77
2022/04/04 11:23:09;;;;;;;3.20;3.00;;;;;;;;;;10427094;28;20199;-79
2022/04/04 11:28:10;;;;;;;4.80;4.40;;;;;;;;;;10426172;28;20199;-82
2022/04/04 11:33:21;;;;;;;4.03;3.70;;;;;;;;;;10424376;28;20231;-75
2022/04/04 11:38:22;;;;;;;3.70;3.45;;;;;;;;;;10421806;28;20219;-76
2022/04/04 11:43:25;;;;;;;4.57;3.97;;;;;;;;;;10425844;28;20293;-76
2022/04/04 11:48:28;;;;;;;5.07;4.60;;;;;;;;;;10431778;28;20211;-81
2022/04/04 11:53:37;;;;;;;3.40;3.22;;;;;;;;;;10431423;28;20310;-78
2022/04/04 11:58:51;;;;;;;3.90;3.65;;;;;;;;;;10426262;28;20203;-76
2022/04/04 12:03:52;;;;;;;3.53;3.22;;;;;;;;;;10428810;28;20285;-78
2022/04/04 12:08:55;;;;;;;4.30;4.03;;;;;;;;;;10426679;28;20199;-75
2022/04/04 12:13:57;;;;;;;4.68;4.45;;;;;;;;;;10425513;28;20743;-76
2022/04/04 12:19:04;;;;;;;4.20;3.85;;;;;;;;;;10428782;28;20225;-78
2022/04/04 12:29:26;;;;;;;4.15;3.60;;;;;;;;;;10433100;28;20226;-72
2022/04/04 12:34:28;;;;;;;5.05;4.65;;;;;;;;;;10431923;28;20220;-75
2022/04/04 12:39:29;;;;;;;4.63;4.43;;;;;;;;;;10430456;28;20203;-75
2022/04/04 12:44:30;;;;;;;4.28;4.07;;;;;;;;;;10432727;28;20195;-76
2022/04/04 12:49:31;;;;;;;4.95;4.55;;;;;;;;;;10435974;28;20234;-78
2022/04/04 12:54:39;;;;;;;4.85;4.45;;;;;;;;;;10430338;28;20285;-75
2022/04/04 12:59:51;;;;;;;4.47;4.07;;;;;;;;;;10433417;28;20265;-77
2022/04/04 13:05:09;;;;;;;5.93;5.43;;;;;;;;;;10430933;28;20219;-77
2022/04/04 13:10:12;;;;;;;5.88;5.20;;;;;;;;;;10429924;28;20234;-77
2022/04/04 13:15:13;;;;;;;5.35;4.90;;;;;;;;;;10429969;28;20206;-78
2022/04/04 13:20:14;;;;;;;6.15;5.65;;;;;;;;;;10430817;28;20222;-78
2022/04/04 13:25:15;;;;;;;7.50;6.90;;;;;;;;;;10428445;28;20555;-78
2022/04/04 13:30:16;;;;;;;7.88;7.18;;;;;;;;;;10433312;28;20230;-81
2022/04/04 13:35:17;;;;;;;8.35;7.05;;;;;;;;;;10431491;28;20725;-80
2022/04/04 13:40:18;;;;;;;7.43;6.18;;;;;;;;;;10423785;28;20713;-75
2022/04/04 13:45:19;;;;;;;4.93;4.63;;;;;;;;;;10427579;28;20201;-78
2022/04/04 13:50:20;;;;;;;5.47;4.95;;;;;;;;;;10428432;28;20206;-78
2022/04/04 13:55:22;;;;;;;6.63;6.00;;;;;;;;;;10423774;28;20219;-76
2022/04/04 14:00:24;;;;;;;8.75;7.95;;;;;;;;;;10426877;28;20199;-73
2022/04/04 14:05:25;;;;;;;6.70;6.30;;;;;;;;;;10420524;28;20578;-72
2022/04/04 14:10:27;;;;;;;6.97;6.53;;;;;;;;;;10422979;28;20887;-75
2022/04/04 14:15:29;;;;;;;7.20;6.55;;;;;;;;;;10420953;28;20215;-76
2022/04/04 14:20:30;;;;;;;6.25;5.93;;;;;;;;;;10423961;28;20235;-74
2022/04/04 14:25:31;;;;;;;4.88;4.63;;;;;;;;;;10421734;28;20705;-77
2022/04/04 14:30:32;;;;;;;7.15;6.50;;;;;;;;;;10421809;28;20269;-76
2022/04/04 14:35:33;;;;;;;3.85;3.55;;;;;;;;;;10404777;28;20202;-76
2022/04/04 14:40:39;;;;;;;8.27;7.50;;;;;;;;;;10423021;28;20199;-77
2022/04/04 14:45:40;;;;;;;5.38;5.07;;;;;;;;;;10424695;28;20310;-76
2022/04/04 14:50:41;;;;;;;5.13;4.93;;;;;;;;;;10419647;28;20743;-77
2022/04/04 14:55:42;;;;;;;4.15;3.95;;;;;;;;;;10420212;28;20223;-76
2022/04/04 15:00:44;;;;;;;4.57;4.38;;;;;;;;;;10422844;28;20216;-76
2022/04/04 15:05:45;;;;;;;4.97;4.55;;;;;;;;;;10423961;28;20251;-78
2022/04/04 15:10:46;;;;;;;4.60;4.43;;;;;;;;;;10420514;28;20644;-76
2022/04/04 15:15:47;;;;;;;4.00;3.90;;;;;;;;;;10421173;28;20206;-77
2022/04/04 15:20:48;;;;;;;4.00;3.80;;;;;;;;;;10425043;28;20191;-79
2022/04/04 15:25:49;;;;;;;3.38;3.28;;;;;;;;;;10429002;28;20577;-77
2022/04/04 15:30:54;;;;;;;2.80;2.70;;;;;;;;;;10422562;28;20222;-75
2022/04/04 15:35:57;;;;;;;1.60;1.60;;;;;;;;;;10411169;28;20610;-77
2022/04/04 15:40:58;;;;;;;2.08;2.08;;;;;;;;;;10429650;28;20233;-76
2022/04/04 15:45:59;;;;;;;4.10;3.85;;;;;;;;;;10427958;28;20188;-76
2022/04/04 15:51:00;;;;;;;1.52;1.52;;;;;;;;;;10425003;28;20241;-77
2022/04/04 15:56:02;;;;;;;1.85;1.85;;;;;;;;;;10425076;28;20230;-79
2022/04/04 16:01:03;;;;;;;1.63;1.63;;;;;;;;;;10427058;28;20214;-76
2022/04/04 16:06:04;;;;;;;1.50;1.50;;;;;;;;;;10424356;28;20190;-76
2022/04/04 16:11:05;;;;;;;1.60;1.60;;;;;;;;;;10410283;28;20246;-82
2022/04/04 16:16:06;;;;;;;1.80;1.80;;;;;;;;;;10425582;28;20285;-77
2022/04/04 16:21:08;;;;;;;1.20;1.20;;;;;;;;;;10402515;28;20291;-78
2022/04/04 16:26:10;;;;;;;1.40;1.30;;;;;;;;;;10419800;28;20191;-75
2022/04/04 16:31:12;;;;;;;2.35;2.00;;;;;;;;;;10399789;28;20268;-77
2022/04/04 16:36:13;;;;;;;1.05;1.05;;;;;;;;;;10419801;28;20191;-77
2022/04/04 16:41:15;;;;;;;1.30;1.30;;;;;;;;;;10424383;28;20214;-75
2022/04/04 16:46:18;;;;;;;1.10;1.10;;;;;;;;;;10419112;28;20195;-75
2022/04/04 16:51:19;;;;;;;1.00;1.00;;;;;;;;;;10420328;28;20321;-74
2022/04/04 16:56:20;;;;;;;0.95;0.95;;;;;;;;;;10421032;28;20238;-75
2022/04/04 17:01:21;;;;;;;1.15;1.15;;;;;;;;;;10421760;28;20218;-77
2022/04/04 17:06:22;;;;;;;4.32;3.38;;;;;;;;;;10422715;28;20215;-76
2022/04/04 17:11:23;;;;;;;1.20;1.20;;;;;;;;;;10420903;28;20784;-77
2022/04/04 17:16:27;;;;;;;1.30;1.30;;;;;;;;;;10422788;28;20202;-77
2022/04/04 17:21:28;;;;;;;1.25;1.25;;;;;;;;;;10427213;28;20590;-75
2022/04/04 17:26:29;;;;;;;1.40;1.40;;;;;;;;;;10419782;28;20215;-75
2022/04/04 17:31:30;;;;;;;1.02;1.02;;;;;;;;;;10422123;28;20669;-76
2022/04/04 17:36:33;;;;;;;1.20;1.20;;;;;;;;;;10400062;28;20581;-76
2022/04/04 17:41:34;;;;;;;1.20;1.05;;;;;;;;;;10420316;28;20191;-76
2022/04/04 17:46:35;;;;;;;0.70;0.70;;;;;;;;;;10420902;28;20203;-74
2022/04/04 17:51:38;;;;;;;0.70;0.70;;;;;;;;;;10421669;28;20214;-75
2022/04/04 17:56:39;;;;;;;0.73;0.73;;;;;;;;;;10420650;28;20619;-76
2022/04/04 18:01:43;;;;;;;0.50;0.50;;;;;;;;;;10422497;28;20215;-75
2022/04/04 18:06:45;;;;;;;0.60;0.60;;;;;;;;;;10421492;28;20194;-74
2022/04/04 18:11:46;;;;;;;0.80;0.80;;;;;;;;;;10413219;28;20975;-71
2022/04/04 18:16:48;;;;;;;0.60;0.60;;;;;;;;;;10397615;28;20207;-72
2022/04/04 18:21:50;;;;;;;0.50;0.50;;;;;;;;;;10414950;28;20230;-71
2022/04/04 18:26:53;;;;;;;0.70;0.70;;;;;;;;;;10415971;28;20207;-69
2022/04/04 18:31:54;;;;;;;0.60;0.60;;;;;;;;;;10416267;28;20222;-70
2022/04/04 18:36:55;;;;;;;0.60;0.60;;;;;;;;;;10419421;28;20336;-70
2022/04/04 18:41:57;;;;;;;0.60;0.60;;;;;;;;;;10418212;28;20297;-72
2022/04/04 18:46:59;;;;;;;0.57;0.57;;;;;;;;;;10415138;28;20560;-75
2022/04/04 18:52:00;;;;;;;0.75;0.75;;;;;;;;;;10412999;28;20285;-75
2022/04/04 18:57:02;;;;;;;0.63;0.63;;;;;;;;;;10416487;28;20222;-72
2022/04/04 19:02:03;;;;;;;0.60;0.60;;;;;;;;;;10410444;28;20215;-70
2022/04/04 19:07:04;;;;;;;0.88;0.88;;;;;;;;;;10395357;28;20593;-72
2022/04/04 19:12:05;;;;;;;0.68;0.68;;;;;;;;;;10411846;28;20222;-76
2022/04/04 19:17:06;;;;;;;0.80;0.80;;;;;;;;;;10417990;28;20267;-72
2022/04/04 19:22:07;;;;;;;0.77;0.77;;;;;;;;;;10416497;28;20938;-71
2022/04/04 19:27:10;;;;;;;0.90;0.90;;;;;;;;;;10416887;28;20311;-72
2022/04/04 19:32:11;;;;;;;1.27;0.98;;;;;;;;;;10412561;28;20227;-70
2022/04/04 19:37:14;;;;;;;1.02;1.02;;;;;;;;;;10413216;28;20934;-75
2022/04/04 19:42:15;;;;;;;1.15;1.15;;;;;;;;;;10394914;28;20253;-74
2022/04/04 19:47:16;;;;;;;1.35;1.35;;;;;;;;;;10410033;28;20326;-74
2022/04/04 19:52:19;;;;;;;1.40;1.40;;;;;;;;;;10413385;28;20222;-75
2022/04/04 19:57:20;;;;;;;1.85;1.75;;;;;;;;;;10413396;28;20737;-71
2022/04/04 20:02:22;;;;;;;2.10;2.10;;;;;;;;;;10412604;28;20214;-74
2022/04/04 20:07:23;;;;;;;1.88;1.88;;;;;;;;;;10417052;28;20234;-75
2022/04/04 20:12:24;;;;;;;1.92;1.92;;;;;;;;;;10418422;28;20569;-75
2022/04/04 20:17:25;;;;;;;3.75;3.53;;;;;;;;;;10421799;28;20211;-74
2022/04/04 20:22:26;;;;;;;2.90;2.90;;;;;;;;;;10418706;28;20593;-75
2022/04/04 20:27:27;;;;;;;3.53;3.42;;;;;;;;;;10405694;28;21051;-74
2022/04/04 20:32:28;;;;;;;2.97;2.92;;;;;;;;;;10421523;28;20222;-75
2022/04/04 20:37:29;;;;;;;3.85;3.60;;;;;;;;;;10421573;28;20632;-75
2022/04/04 20:42:32;;;;;;;5.20;4.80;;;;;;;;;;10395291;28;20793;-75
2022/04/04 20:47:33;;;;;;;4.15;4.05;;;;;;;;;;10418351;28;20199;-74
2022/04/04 20:52:34;;;;;;;4.57;4.28;;;;;;;;;;10415515;28;20731;-74
2022/04/04 20:57:35;;;;;;;4.38;4.28;;;;;;;;;;10411431;28;20242;-74
2022/04/04 21:02:36;;;;;;;4.80;4.60;;;;;;;;;;10401364;28;20226;-75
2022/04/04 21:07:37;;;;;;;4.40;4.30;;;;;;;;;;10406383;28;20204;-75
2022/04/04 21:12:38;;;;;;;4.15;4.05;;;;;;;;;;10388070;28;20311;-75
2022/04/04 21:17:40;;;;;;;4.45;4.35;;;;;;;;;;10413397;28;20205;-75
2022/04/04 21:22:41;;;;;;;4.95;4.60;;;;;;;;;;10413057;28;20197;-74
2022/04/04 21:27:42;;;;;;;4.93;4.78;;;;;;;;;;10410285;28;20683;-74
2022/04/04 21:32:43;;;;;;;5.65;5.45;;;;;;;;;;10416578;28;20260;-74
2022/04/04 21:37:44;;;;;;;5.30;5.10;;;;;;;;;;10413908;28;20203;-75
2022/04/04 21:42:45;;;;;;;5.40;5.13;;;;;;;;;;10411764;28;20203;-75
2022/04/04 21:47:46;;;;;;;5.35;5.15;;;;;;;;;;10409446;28;20798;-74
2022/04/04 21:52:49;;;;;;;5.68;5.47;;;;;;;;;;10413573;28;20897;-75
2022/04/04 21:57:50;;;;;;;6.10;5.70;;;;;;;;;;10410165;28;20273;-74
2022/04/04 22:02:53;;;;;;;6.15;5.85;;;;;;;;;;10411296;28;20207;-74
2022/04/04 22:07:54;;;;;;;5.70;5.47;;;;;;;;;;10409467;28;20207;-75
2022/04/04 22:12:57;;;;;;;6.05;5.75;;;;;;;;;;10405033;28;20889;-75
2022/04/04 22:17:58;;;;;;;6.32;6.03;;;;;;;;;;10406717;28;20277;-75
2022/04/04 22:22:59;;;;;;;6.18;5.88;;;;;;;;;;10413269;28;20226;-75
2022/04/04 22:28:00;;;;;;;5.88;5.57;;;;;;;;;;10389673;28;20198;-75
2022/04/04 22:33:01;;;;;;;5.90;5.70;;;;;;;;;;10410750;28;20226;-75
2022/04/04 22:38:02;;;;;;;5.97;5.68;;;;;;;;;;10407156;28;20363;-74
2022/04/04 22:43:03;;;;;;;5.90;5.57;;;;;;;;;;10410842;28;20570;-75
2022/04/04 22:48:04;;;;;;;5.40;5.13;;;;;;;;;;10409785;28;20261;-74
2022/04/04 22:53:07;;;;;;;6.72;6.25;;;;;;;;;;10413100;28;20223;-75
2022/04/04 22:58:08;;;;;;;5.63;5.32;;;;;;;;;;10411227;28;20205;-76
2022/04/04 23:03:09;;;;;;;6.18;5.88;;;;;;;;;;10406143;28;20245;-75
2022/04/04 23:08:10;;;;;;;5.00;4.80;;;;;;;;;;10412381;28;20198;-75
2022/04/04 23:13:11;;;;;;;5.03;4.82;;;;;;;;;;10409298;28;20728;-75
2022/04/04 23:18:13;;;;;;;5.78;5.38;;;;;;;;;;10410006;28;20281;-75
2022/04/04 23:23:14;;;;;;;5.72;5.40;;;;;;;;;;10406275;28;20264;-74
2022/04/04 23:28:15;;;;;;;5.60;5.30;;;;;;;;;;10410113;28;20229;-75
2022/04/04 23:33:16;;;;;;;5.32;5.03;;;;;;;;;;10415548;28;20277;-75
2022/04/04 23:38:17;;;;;;;5.13;4.93;;;;;;;;;;10415423;28;20219;-74
2022/04/04 23:43:18;;;;;;;4.97;4.78;;;;;;;;;;10411388;28;20217;-74
2022/04/04 23:48:20;;;;;;;4.72;4.53;;;;;;;;;;10417034;28;20199;-74
2022/04/04 23:53:21;;;;;;;5.38;5.13;;;;;;;;;;10398932;28;20231;-74
2022/04/04 23:58:22;;;;;;;5.00;4.78;;;;;;;;;;10411583;28;20187;-73
